sensor_id;sensor_type;location;lat;lon;timestamp;temperature;humidity
50067;DHT22;35952;52.524;13.340;2022-09-03T00:01:04;16.30;67.70
50067;DHT22;35952;52.524;13.340;2022-09-03T00:03:50;16.20;68.00
50067;DHT22;35952;52.524;13.340;2022-09-03T00:06:23;16.30;68.10
50067;DHT22;35952;52.524;13.340;2022-09-03T00:09:13;16.40;67.80
50067;DHT22;35952;52.524;13.340;2022-09-03T00:11:50;16.40;67.80
50067;DHT22;35952;52.524;13.340;2022-09-03T00:14:23;16.30;67.90
50067;DHT22;35952;52.524;13.340;2022-09-03T00:16:56;16.30;68.00
50067;DHT22;35952;52.524;13.340;2022-09-03T00:19:27;16.20;68.10
50067;DHT22;35952;52.524;13.340;2022-09-03T00:21:59;16.30;68.30
50067;DHT22;35952;52.524;13.340;2022-09-03T00:24:30;16.20;68.30
50067;DHT22;35952;52.524;13.340;2022-09-03T00:27:03;16.10;68.70
50067;DHT22;35952;52.524;13.340;2022-09-03T00:29:35;16.00;69.30
50067;DHT22;35952;52.524;13.340;2022-09-03T00:32:07;16.00;69.60
50067;DHT22;35952;52.524;13.340;2022-09-03T00:34:38;15.90;69.70
50067;DHT22;35952;52.524;13.340;2022-09-03T00:37:07;16.00;69.80
50067;DHT22;35952;52.524;13.340;2022-09-03T00:39:35;16.00;70.10
50067;DHT22;35952;52.524;13.340;2022-09-03T00:47:34;15.90;70.30
50067;DHT22;35952;52.524;13.340;2022-09-03T00:50:13;15.90;70.40
50067;DHT22;35952;52.524;13.340;2022-09-03T00:53:10;15.80;70.50
50067;DHT22;35952;52.524;13.340;2022-09-03T00:58:51;15.80;71.20
50067;DHT22;35952;52.524;13.340;2022-09-03T01:01:29;15.70;70.70
50067;DHT22;35952;52.524;13.340;2022-09-03T01:04:20;15.60;71.20
50067;DHT22;35952;52.524;13.340;2022-09-03T01:09:29;15.60;71.60
50067;DHT22;35952;52.524;13.340;2022-09-03T01:14:58;15.60;71.50
50067;DHT22;35952;52.524;13.340;2022-09-03T01:17:44;15.70;71.30
50067;DHT22;35952;52.524;13.340;2022-09-03T01:20:13;15.70;71.20
50067;DHT22;35952;52.524;13.340;2022-09-03T01:25:53;15.70;71.30
50067;DHT22;35952;52.524;13.340;2022-09-03T01:28:41;15.70;71.40
50067;DHT22;35952;52.524;13.340;2022-09-03T01:31:24;15.50;71.70
50067;DHT22;35952;52.524;13.340;2022-09-03T01:34:15;15.50;72.30
50067;DHT22;35952;52.524;13.340;2022-09-03T01:42:54;15.40;72.40
50067;DHT22;35952;52.524;13.340;2022-09-03T01:56:18;15.30;73.00
50067;DHT22;35952;52.524;13.340;2022-09-03T01:59:36;15.30;73.20
50067;DHT22;35952;52.524;13.340;2022-09-03T02:04:18;15.20;73.30
50067;DHT22;35952;52.524;13.340;2022-09-03T02:06:45;15.20;73.90
50067;DHT22;35952;52.524;13.340;2022-09-03T02:09:13;15.40;73.60
50067;DHT22;35952;52.524;13.340;2022-09-03T02:11:40;15.40;73.20
50067;DHT22;35952;52.524;13.340;2022-09-03T02:14:06;15.30;73.50
50067;DHT22;35952;52.524;13.340;2022-09-03T02:16:33;15.30;73.40
50067;DHT22;35952;52.524;13.340;2022-09-03T02:19:09;15.20;73.60
50067;DHT22;35952;52.524;13.340;2022-09-03T02:21:48;15.20;73.80
50067;DHT22;35952;52.524;13.340;2022-09-03T02:24:14;15.10;74.10
50067;DHT22;35952;52.524;13.340;2022-09-03T02:26:40;15.10;74.10
50067;DHT22;35952;52.524;13.340;2022-09-03T02:29:05;15.20;74.00
50067;DHT22;35952;52.524;13.340;2022-09-03T02:31:31;15.00;74.50
50067;DHT22;35952;52.524;13.340;2022-09-03T02:33:57;15.00;74.60
50067;DHT22;35952;52.524;13.340;2022-09-03T02:36:35;15.00;75.00
50067;DHT22;35952;52.524;13.340;2022-09-03T02:39:01;15.10;74.40
50067;DHT22;35952;52.524;13.340;2022-09-03T02:41:27;15.00;74.60
50067;DHT22;35952;52.524;13.340;2022-09-03T02:44:12;15.00;74.50
50067;DHT22;35952;52.524;13.340;2022-09-03T02:46:45;15.10;74.20
50067;DHT22;35952;52.524;13.340;2022-09-03T02:49:13;15.00;74.60
50067;DHT22;35952;52.524;13.340;2022-09-03T02:51:40;15.00;74.60
50067;DHT22;35952;52.524;13.340;2022-09-03T02:54:07;14.80;74.80
50067;DHT22;35952;52.524;13.340;2022-09-03T02:56:33;14.90;74.90
50067;DHT22;35952;52.524;13.340;2022-09-03T02:58:59;14.80;75.00
50067;DHT22;35952;52.524;13.340;2022-09-03T03:01:25;14.80;75.50
50067;DHT22;35952;52.524;13.340;2022-09-03T03:03:52;14.80;75.30
50067;DHT22;35952;52.524;13.340;2022-09-03T03:06:18;14.80;74.90
50067;DHT22;35952;52.524;13.340;2022-09-03T03:08:45;14.70;75.70
50067;DHT22;35952;52.524;13.340;2022-09-03T03:11:11;14.70;76.10
50067;DHT22;35952;52.524;13.340;2022-09-03T03:13:36;14.70;75.50
50067;DHT22;35952;52.524;13.340;2022-09-03T03:16:04;14.70;75.50
50067;DHT22;35952;52.524;13.340;2022-09-03T03:18:32;14.60;76.00
50067;DHT22;35952;52.524;13.340;2022-09-03T03:21:06;14.70;75.20
50067;DHT22;35952;52.524;13.340;2022-09-03T03:23:33;14.60;75.70
50067;DHT22;35952;52.524;13.340;2022-09-03T03:26:03;14.50;76.50
50067;DHT22;35952;52.524;13.340;2022-09-03T03:28:30;14.60;76.20
50067;DHT22;35952;52.524;13.340;2022-09-03T03:31:03;14.60;76.20
50067;DHT22;35952;52.524;13.340;2022-09-03T03:33:29;14.60;76.00
50067;DHT22;35952;52.524;13.340;2022-09-03T03:35:54;14.50;76.30
50067;DHT22;35952;52.524;13.340;2022-09-03T03:38:20;14.50;76.10
50067;DHT22;35952;52.524;13.340;2022-09-03T03:40:45;14.40;76.60
50067;DHT22;35952;52.524;13.340;2022-09-03T03:43:11;14.50;76.80
50067;DHT22;35952;52.524;13.340;2022-09-03T03:45:36;14.40;76.50
50067;DHT22;35952;52.524;13.340;2022-09-03T03:48:02;14.40;76.70
50067;DHT22;35952;52.524;13.340;2022-09-03T03:50:27;14.40;76.70
50067;DHT22;35952;52.524;13.340;2022-09-03T03:52:53;14.50;76.50
50067;DHT22;35952;52.524;13.340;2022-09-03T03:55:19;14.50;76.50
50067;DHT22;35952;52.524;13.340;2022-09-03T03:57:44;14.50;76.40
50067;DHT22;35952;52.524;13.340;2022-09-03T04:00:10;14.60;76.10
50067;DHT22;35952;52.524;13.340;2022-09-03T04:02:35;14.50;76.50
50067;DHT22;35952;52.524;13.340;2022-09-03T04:05:01;14.50;76.70
50067;DHT22;35952;52.524;13.340;2022-09-03T04:07:26;14.40;77.10
50067;DHT22;35952;52.524;13.340;2022-09-03T04:09:52;14.50;76.80
50067;DHT22;35952;52.524;13.340;2022-09-03T04:12:17;14.50;76.50
50067;DHT22;35952;52.524;13.340;2022-09-03T04:14:43;14.50;77.00
50067;DHT22;35952;52.524;13.340;2022-09-03T04:17:09;14.50;77.10
50067;DHT22;35952;52.524;13.340;2022-09-03T04:19:34;14.40;77.00
50067;DHT22;35952;52.524;13.340;2022-09-03T04:22:00;14.40;77.20
50067;DHT22;35952;52.524;13.340;2022-09-03T04:24:25;14.40;77.40
50067;DHT22;35952;52.524;13.340;2022-09-03T04:26:51;14.40;77.10
50067;DHT22;35952;52.524;13.340;2022-09-03T04:29:18;14.50;76.90
50067;DHT22;35952;52.524;13.340;2022-09-03T04:31:45;14.50;77.00
50067;DHT22;35952;52.524;13.340;2022-09-03T04:34:29;14.50;77.00
50067;DHT22;35952;52.524;13.340;2022-09-03T04:36:55;14.50;77.40
50067;DHT22;35952;52.524;13.340;2022-09-03T04:39:23;14.40;77.60
50067;DHT22;35952;52.524;13.340;2022-09-03T04:41:49;14.50;77.60
50067;DHT22;35952;52.524;13.340;2022-09-03T04:44:14;14.40;78.00
50067;DHT22;35952;52.524;13.340;2022-09-03T04:46:40;14.40;78.50
50067;DHT22;35952;52.524;13.340;2022-09-03T04:49:06;14.30;78.90
50067;DHT22;35952;52.524;13.340;2022-09-03T04:51:34;14.30;79.20
50067;DHT22;35952;52.524;13.340;2022-09-03T04:54:02;14.30;79.40
50067;DHT22;35952;52.524;13.340;2022-09-03T04:56:32;14.40;78.90
50067;DHT22;35952;52.524;13.340;2022-09-03T04:59:00;14.40;79.40
50067;DHT22;35952;52.524;13.340;2022-09-03T05:01:29;14.40;79.60
50067;DHT22;35952;52.524;13.340;2022-09-03T05:03:55;14.70;79.60
50067;DHT22;35952;52.524;13.340;2022-09-03T05:06:22;14.90;78.60
50067;DHT22;35952;52.524;13.340;2022-09-03T05:08:49;15.20;78.10
50067;DHT22;35952;52.524;13.340;2022-09-03T05:11:15;15.20;77.50
50067;DHT22;35952;52.524;13.340;2022-09-03T05:13:41;15.00;78.40
50067;DHT22;35952;52.524;13.340;2022-09-03T05:16:09;14.80;79.20
50067;DHT22;35952;52.524;13.340;2022-09-03T05:18:35;14.60;80.10
50067;DHT22;35952;52.524;13.340;2022-09-03T05:21:15;14.70;80.60
50067;DHT22;35952;52.524;13.340;2022-09-03T05:23:42;14.60;81.10
50067;DHT22;35952;52.524;13.340;2022-09-03T05:26:11;14.70;81.70
50067;DHT22;35952;52.524;13.340;2022-09-03T05:28:38;14.60;82.00
50067;DHT22;35952;52.524;13.340;2022-09-03T05:31:07;14.70;82.00
50067;DHT22;35952;52.524;13.340;2022-09-03T05:33:34;14.80;82.00
50067;DHT22;35952;52.524;13.340;2022-09-03T05:36:01;14.80;82.20
50067;DHT22;35952;52.524;13.340;2022-09-03T05:38:27;15.00;81.90
50067;DHT22;35952;52.524;13.340;2022-09-03T05:40:52;15.00;81.70
50067;DHT22;35952;52.524;13.340;2022-09-03T05:43:18;14.90;82.50
50067;DHT22;35952;52.524;13.340;2022-09-03T05:45:45;15.00;82.70
50067;DHT22;35952;52.524;13.340;2022-09-03T05:48:10;15.20;82.50
50067;DHT22;35952;52.524;13.340;2022-09-03T05:50:36;15.70;80.90
50067;DHT22;35952;52.524;13.340;2022-09-03T05:53:01;16.20;79.90
50067;DHT22;35952;52.524;13.340;2022-09-03T05:55:27;16.30;78.80
50067;DHT22;35952;52.524;13.340;2022-09-03T05:57:53;17.70;76.60
50067;DHT22;35952;52.524;13.340;2022-09-03T06:00:19;19.40;72.10
50067;DHT22;35952;52.524;13.340;2022-09-03T06:02:51;19.60;69.50
50067;DHT22;35952;52.524;13.340;2022-09-03T06:05:17;18.70;69.90
50067;DHT22;35952;52.524;13.340;2022-09-03T06:07:44;17.70;72.70
50067;DHT22;35952;52.524;13.340;2022-09-03T06:10:09;17.10;75.80
50067;DHT22;35952;52.524;13.340;2022-09-03T06:12:36;16.50;77.20
50067;DHT22;35952;52.524;13.340;2022-09-03T06:15:03;16.20;78.70
50067;DHT22;35952;52.524;13.340;2022-09-03T06:17:30;16.30;79.70
50067;DHT22;35952;52.524;13.340;2022-09-03T06:19:55;16.20;80.20
50067;DHT22;35952;52.524;13.340;2022-09-03T06:22:21;16.20;79.90
50067;DHT22;35952;52.524;13.340;2022-09-03T06:24:49;16.40;79.20
50067;DHT22;35952;52.524;13.340;2022-09-03T06:27:14;16.40;79.30
50067;DHT22;35952;52.524;13.340;2022-09-03T06:29:40;16.20;79.60
50067;DHT22;35952;52.524;13.340;2022-09-03T06:32:05;15.90;80.80
50067;DHT22;35952;52.524;13.340;2022-09-03T06:34:31;15.80;82.10
50067;DHT22;35952;52.524;13.340;2022-09-03T06:36:57;15.90;81.90
50067;DHT22;35952;52.524;13.340;2022-09-03T06:39:23;15.60;81.90
50067;DHT22;35952;52.524;13.340;2022-09-03T06:41:49;15.50;82.60
50067;DHT22;35952;52.524;13.340;2022-09-03T06:44:17;15.40;83.40
50067;DHT22;35952;52.524;13.340;2022-09-03T06:46:42;15.40;83.60
50067;DHT22;35952;52.524;13.340;2022-09-03T06:49:08;15.50;83.60
50067;DHT22;35952;52.524;13.340;2022-09-03T06:51:35;15.40;84.10
50067;DHT22;35952;52.524;13.340;2022-09-03T06:54:10;15.60;84.10
50067;DHT22;35952;52.524;13.340;2022-09-03T06:56:37;15.70;83.50
50067;DHT22;35952;52.524;13.340;2022-09-03T06:59:05;15.80;83.50
50067;DHT22;35952;52.524;13.340;2022-09-03T07:01:32;16.10;83.40
50067;DHT22;35952;52.524;13.340;2022-09-03T07:04:03;16.10;82.10
50067;DHT22;35952;52.524;13.340;2022-09-03T07:06:31;16.10;81.90
50067;DHT22;35952;52.524;13.340;2022-09-03T07:08:57;16.20;82.30
50067;DHT22;35952;52.524;13.340;2022-09-03T07:11:26;16.20;82.30
50067;DHT22;35952;52.524;13.340;2022-09-03T07:13:54;16.40;81.50
50067;DHT22;35952;52.524;13.340;2022-09-03T07:16:25;16.60;81.30
50067;DHT22;35952;52.524;13.340;2022-09-03T07:18:52;16.80;80.60
50067;DHT22;35952;52.524;13.340;2022-09-03T07:21:20;16.90;80.50
50067;DHT22;35952;52.524;13.340;2022-09-03T07:23:46;16.90;80.50
50067;DHT22;35952;52.524;13.340;2022-09-03T07:26:18;17.40;79.70
50067;DHT22;35952;52.524;13.340;2022-09-03T07:28:47;17.30;78.70
50067;DHT22;35952;52.524;13.340;2022-09-03T07:31:18;17.20;78.10
50067;DHT22;35952;52.524;13.340;2022-09-03T07:33:45;16.90;79.50
50067;DHT22;35952;52.524;13.340;2022-09-03T07:36:13;16.80;81.30
50067;DHT22;35952;52.524;13.340;2022-09-03T07:38:40;16.90;81.70
50067;DHT22;35952;52.524;13.340;2022-09-03T07:41:07;16.90;81.80
50067;DHT22;35952;52.524;13.340;2022-09-03T07:43:35;16.80;80.60
50067;DHT22;35952;52.524;13.340;2022-09-03T07:46:02;16.90;80.10
50067;DHT22;35952;52.524;13.340;2022-09-03T07:48:27;17.00;80.20
50067;DHT22;35952;52.524;13.340;2022-09-03T07:50:58;17.00;80.40
50067;DHT22;35952;52.524;13.340;2022-09-03T07:53:26;17.00;81.70
50067;DHT22;35952;52.524;13.340;2022-09-03T07:55:52;17.00;82.30
50067;DHT22;35952;52.524;13.340;2022-09-03T07:58:18;17.20;80.30
50067;DHT22;35952;52.524;13.340;2022-09-03T08:00:49;17.10;79.60
50067;DHT22;35952;52.524;13.340;2022-09-03T08:03:14;17.00;79.60
50067;DHT22;35952;52.524;13.340;2022-09-03T08:05:41;17.10;80.40
50067;DHT22;35952;52.524;13.340;2022-09-03T08:08:06;17.20;80.20
50067;DHT22;35952;52.524;13.340;2022-09-03T08:10:35;17.40;79.80
50067;DHT22;35952;52.524;13.340;2022-09-03T08:13:02;17.40;79.90
50067;DHT22;35952;52.524;13.340;2022-09-03T08:15:30;17.50;80.10
50067;DHT22;35952;52.524;13.340;2022-09-03T08:17:55;17.80;78.90
50067;DHT22;35952;52.524;13.340;2022-09-03T08:20:21;17.80;78.30
50067;DHT22;35952;52.524;13.340;2022-09-03T08:22:46;17.70;78.80
50067;DHT22;35952;52.524;13.340;2022-09-03T08:25:13;17.80;78.20
50067;DHT22;35952;52.524;13.340;2022-09-03T08:27:38;18.00;77.80
50067;DHT22;35952;52.524;13.340;2022-09-03T08:30:04;18.30;78.40
50067;DHT22;35952;52.524;13.340;2022-09-03T08:32:34;18.50;76.70
50067;DHT22;35952;52.524;13.340;2022-09-03T08:34:59;19.00;74.90
50067;DHT22;35952;52.524;13.340;2022-09-03T08:37:25;20.40;72.80
50067;DHT22;35952;52.524;13.340;2022-09-03T08:39:53;21.60;67.40
50067;DHT22;35952;52.524;13.340;2022-09-03T08:42:46;22.70;63.10
50067;DHT22;35952;52.524;13.340;2022-09-03T08:45:14;22.60;61.60
50067;DHT22;35952;52.524;13.340;2022-09-03T08:47:58;22.10;61.10
50067;DHT22;35952;52.524;13.340;2022-09-03T08:50:30;21.20;61.80
50067;DHT22;35952;52.524;13.340;2022-09-03T08:53:14;20.90;64.50
50067;DHT22;35952;52.524;13.340;2022-09-03T08:55:59;21.00;64.00
50067;DHT22;35952;52.524;13.340;2022-09-03T08:58:30;21.20;62.90
50067;DHT22;35952;52.524;13.340;2022-09-03T09:01:58;21.00;63.60
50067;DHT22;35952;52.524;13.340;2022-09-03T09:04:31;21.00;63.70
50067;DHT22;35952;52.524;13.340;2022-09-03T09:10:11;24.70;58.70
50067;DHT22;35952;52.524;13.340;2022-09-03T09:13:16;26.60;54.50
50067;DHT22;35952;52.524;13.340;2022-09-03T09:15:58;27.00;51.50
50067;DHT22;35952;52.524;13.340;2022-09-03T09:21:33;27.50;48.40
50067;DHT22;35952;52.524;13.340;2022-09-03T09:24:05;29.20;47.70
50067;DHT22;35952;52.524;13.340;2022-09-03T09:26:37;29.90;45.20
50067;DHT22;35952;52.524;13.340;2022-09-03T09:29:07;30.40;45.70
50067;DHT22;35952;52.524;13.340;2022-09-03T09:31:35;30.90;43.50
50067;DHT22;35952;52.524;13.340;2022-09-03T09:34:06;30.50;42.00
50067;DHT22;35952;52.524;13.340;2022-09-03T09:36:44;30.00;42.10
50067;DHT22;35952;52.524;13.340;2022-09-03T09:39:11;29.70;43.10
50067;DHT22;35952;52.524;13.340;2022-09-03T09:41:40;29.90;43.40
50067;DHT22;35952;52.524;13.340;2022-09-03T09:44:06;28.30;44.50
50067;DHT22;35952;52.524;13.340;2022-09-03T09:46:39;27.30;46.20
50067;DHT22;35952;52.524;13.340;2022-09-03T09:49:42;25.70;48.00
50067;DHT22;35952;52.524;13.340;2022-09-03T09:52:17;24.50;51.40
50067;DHT22;35952;52.524;13.340;2022-09-03T09:54:44;24.20;51.00
50067;DHT22;35952;52.524;13.340;2022-09-03T09:57:20;22.70;52.10
50067;DHT22;35952;52.524;13.340;2022-09-03T09:59:46;22.70;54.10
50067;DHT22;35952;52.524;13.340;2022-09-03T10:02:24;22.70;54.30
50067;DHT22;35952;52.524;13.340;2022-09-03T10:04:56;22.90;54.30
50067;DHT22;35952;52.524;13.340;2022-09-03T10:07:28;23.30;53.50
50067;DHT22;35952;52.524;13.340;2022-09-03T10:10:16;23.70;53.20
50067;DHT22;35952;52.524;13.340;2022-09-03T10:12:59;23.80;52.10
50067;DHT22;35952;52.524;13.340;2022-09-03T10:18:28;24.10;49.10
50067;DHT22;35952;52.524;13.340;2022-09-03T10:21:14;24.20;47.50
50067;DHT22;35952;52.524;13.340;2022-09-03T10:26:42;23.00;49.70
50067;DHT22;35952;52.524;13.340;2022-09-03T10:29:15;23.10;50.70
50067;DHT22;35952;52.524;13.340;2022-09-03T10:32:12;23.10;50.20
50067;DHT22;35952;52.524;13.340;2022-09-03T10:37:34;23.20;50.30
50067;DHT22;35952;52.524;13.340;2022-09-03T10:40:16;22.70;50.60
50067;DHT22;35952;52.524;13.340;2022-09-03T10:46:13;21.60;51.70
50067;DHT22;35952;52.524;13.340;2022-09-03T10:51:34;22.00;51.30
50067;DHT22;35952;52.524;13.340;2022-09-03T10:57:10;21.80;51.60
50067;DHT22;35952;52.524;13.340;2022-09-03T11:02:39;21.70;51.60
50067;DHT22;35952;52.524;13.340;2022-09-03T11:05:13;21.70;52.10
50067;DHT22;35952;52.524;13.340;2022-09-03T11:08:11;21.60;52.60
50067;DHT22;35952;52.524;13.340;2022-09-03T11:10:44;21.50;52.90
50067;DHT22;35952;52.524;13.340;2022-09-03T11:15:57;21.40;53.00
50067;DHT22;35952;52.524;13.340;2022-09-03T11:18:45;21.50;53.30
50067;DHT22;35952;52.524;13.340;2022-09-03T11:21:16;21.80;53.10
50067;DHT22;35952;52.524;13.340;2022-09-03T11:23:45;22.30;53.10
50067;DHT22;35952;52.524;13.340;2022-09-03T11:26:14;23.50;51.80
50067;DHT22;35952;52.524;13.340;2022-09-03T11:28:49;23.60;51.10
50067;DHT22;35952;52.524;13.340;2022-09-03T11:32:04;23.10;49.90
50067;DHT22;35952;52.524;13.340;2022-09-03T11:34:15;22.70;51.00
50067;DHT22;35952;52.524;13.340;2022-09-03T11:36:51;22.30;51.10
50067;DHT22;35952;52.524;13.340;2022-09-03T11:39:35;22.80;51.10
50067;DHT22;35952;52.524;13.340;2022-09-03T11:42:08;22.40;50.10
50067;DHT22;35952;52.524;13.340;2022-09-03T11:44:43;22.20;51.30
50067;DHT22;35952;52.524;13.340;2022-09-03T11:47:39;22.50;50.90
50067;DHT22;35952;52.524;13.340;2022-09-03T11:50:29;22.20;50.30
50067;DHT22;35952;52.524;13.340;2022-09-03T11:53:25;21.90;51.30
50067;DHT22;35952;52.524;13.340;2022-09-03T11:55:59;21.90;51.70
50067;DHT22;35952;52.524;13.340;2022-09-03T11:58:31;21.90;51.10
50067;DHT22;35952;52.524;13.340;2022-09-03T12:01:01;22.10;51.00
50067;DHT22;35952;52.524;13.340;2022-09-03T12:03:29;22.00;51.30
50067;DHT22;35952;52.524;13.340;2022-09-03T12:06:18;21.90;51.70
50067;DHT22;35952;52.524;13.340;2022-09-03T12:09:14;22.00;52.20
50067;DHT22;35952;52.524;13.340;2022-09-03T12:12:05;21.90;52.00
50067;DHT22;35952;52.524;13.340;2022-09-03T12:14:52;21.90;51.10
50067;DHT22;35952;52.524;13.340;2022-09-03T12:20:11;21.80;51.40
50067;DHT22;35952;52.524;13.340;2022-09-03T12:22:38;21.70;51.20
50067;DHT22;35952;52.524;13.340;2022-09-03T12:25:14;21.70;51.80
50067;DHT22;35952;52.524;13.340;2022-09-03T12:27:43;21.70;51.10
50067;DHT22;35952;52.524;13.340;2022-09-03T12:30:18;21.70;51.00
50067;DHT22;35952;52.524;13.340;2022-09-03T12:32:45;21.70;51.00
50067;DHT22;35952;52.524;13.340;2022-09-03T12:35:17;21.80;50.70
50067;DHT22;35952;52.524;13.340;2022-09-03T12:37:43;21.70;49.60
50067;DHT22;35952;52.524;13.340;2022-09-03T12:40:22;21.80;49.50
50067;DHT22;35952;52.524;13.340;2022-09-03T12:42:48;22.10;49.20
50067;DHT22;35952;52.524;13.340;2022-09-03T12:45:17;22.10;49.10
50067;DHT22;35952;52.524;13.340;2022-09-03T12:47:43;22.10;49.10
50067;DHT22;35952;52.524;13.340;2022-09-03T12:50:15;22.20;49.10
50067;DHT22;35952;52.524;13.340;2022-09-03T12:52:45;22.20;48.90
50067;DHT22;35952;52.524;13.340;2022-09-03T12:58:03;22.50;48.70
50067;DHT22;35952;52.524;13.340;2022-09-03T13:00:31;22.60;48.30
50067;DHT22;35952;52.524;13.340;2022-09-03T13:03:16;22.70;48.20
50067;DHT22;35952;52.524;13.340;2022-09-03T13:06:06;23.00;48.30
50067;DHT22;35952;52.524;13.340;2022-09-03T13:08:49;22.40;48.30
50067;DHT22;35952;52.524;13.340;2022-09-03T13:11:19;22.50;48.60
50067;DHT22;35952;52.524;13.340;2022-09-03T13:14:08;22.50;48.70
50067;DHT22;35952;52.524;13.340;2022-09-03T13:19:16;22.30;48.40
50067;DHT22;35952;52.524;13.340;2022-09-03T13:30:20;22.60;48.00
50067;DHT22;35952;52.524;13.340;2022-09-03T13:33:20;22.60;48.60
50067;DHT22;35952;52.524;13.340;2022-09-03T13:35:52;22.50;49.40
50067;DHT22;35952;52.524;13.340;2022-09-03T13:38:38;22.20;49.20
50067;DHT22;35952;52.524;13.340;2022-09-03T13:44:15;22.10;48.40
50067;DHT22;35952;52.524;13.340;2022-09-03T13:46:44;22.00;48.60
50067;DHT22;35952;52.524;13.340;2022-09-03T13:49:26;21.70;49.70
50067;DHT22;35952;52.524;13.340;2022-09-03T13:52:24;21.60;50.10
50067;DHT22;35952;52.524;13.340;2022-09-03T13:54:56;21.70;50.10
50067;DHT22;35952;52.524;13.340;2022-09-03T13:57:48;21.60;50.40
50067;DHT22;35952;52.524;13.340;2022-09-03T14:06:32;22.20;49.80
50067;DHT22;35952;52.524;13.340;2022-09-03T14:09:15;22.30;49.50
50067;DHT22;35952;52.524;13.340;2022-09-03T14:11:52;22.20;49.10
50067;DHT22;35952;52.524;13.340;2022-09-03T14:16:46;22.30;49.10
50067;DHT22;35952;52.524;13.340;2022-09-03T14:19:20;22.30;48.40
50067;DHT22;35952;52.524;13.340;2022-09-03T14:21:57;22.40;48.60
50067;DHT22;35952;52.524;13.340;2022-09-03T14:27:01;22.40;48.40
50067;DHT22;35952;52.524;13.340;2022-09-03T14:29:30;22.60;48.30
50067;DHT22;35952;52.524;13.340;2022-09-03T14:40:18;22.20;48.80
50067;DHT22;35952;52.524;13.340;2022-09-03T14:42:53;22.40;49.00
50067;DHT22;35952;52.524;13.340;2022-09-03T14:45:30;22.50;49.20
50067;DHT22;35952;52.524;13.340;2022-09-03T14:51:12;23.40;48.10
50067;DHT22;35952;52.524;13.340;2022-09-03T14:54:08;25.30;45.30
50067;DHT22;35952;52.524;13.340;2022-09-03T14:56:51;25.40;43.80
50067;DHT22;35952;52.524;13.340;2022-09-03T14:59:26;26.00;43.50
50067;DHT22;35952;52.524;13.340;2022-09-03T15:04:49;24.50;44.60
50067;DHT22;35952;52.524;13.340;2022-09-03T15:07:35;24.20;46.00
50067;DHT22;35952;52.524;13.340;2022-09-03T15:10:20;23.80;45.90
50067;DHT22;35952;52.524;13.340;2022-09-03T15:13:05;23.40;46.80
50067;DHT22;35952;52.524;13.340;2022-09-03T15:15:53;23.10;46.90
50067;DHT22;35952;52.524;13.340;2022-09-03T15:18:37;22.90;47.50
50067;DHT22;35952;52.524;13.340;2022-09-03T15:24:19;22.50;48.70
50067;DHT22;35952;52.524;13.340;2022-09-03T15:27:19;22.40;48.20
50067;DHT22;35952;52.524;13.340;2022-09-03T15:30:08;22.30;49.00
50067;DHT22;35952;52.524;13.340;2022-09-03T15:38:00;22.30;48.80
50067;DHT22;35952;52.524;13.340;2022-09-03T15:40:31;22.30;49.00
50067;DHT22;35952;52.524;13.340;2022-09-03T15:43:14;22.20;49.30
50067;DHT22;35952;52.524;13.340;2022-09-03T15:49:25;22.20;49.60
50067;DHT22;35952;52.524;13.340;2022-09-03T15:51:44;22.30;49.70
50067;DHT22;35952;52.524;13.340;2022-09-03T15:54:47;22.20;48.30
50067;DHT22;35952;52.524;13.340;2022-09-03T15:58:07;22.10;48.20
50067;DHT22;35952;52.524;13.340;2022-09-03T16:00:20;21.90;48.20
50067;DHT22;35952;52.524;13.340;2022-09-03T16:03:12;22.00;48.50
50067;DHT22;35952;52.524;13.340;2022-09-03T16:05:45;21.80;48.80
50067;DHT22;35952;52.524;13.340;2022-09-03T16:08:36;21.90;49.00
50067;DHT22;35952;52.524;13.340;2022-09-03T16:11:05;22.00;49.10
50067;DHT22;35952;52.524;13.340;2022-09-03T16:13:38;22.10;49.10
50067;DHT22;35952;52.524;13.340;2022-09-03T16:16:12;22.10;48.90
50067;DHT22;35952;52.524;13.340;2022-09-03T16:18:45;22.10;49.00
50067;DHT22;35952;52.524;13.340;2022-09-03T16:24:11;21.80;49.70
50067;DHT22;35952;52.524;13.340;2022-09-03T16:26:50;21.90;49.50
50067;DHT22;35952;52.524;13.340;2022-09-03T16:29:24;21.90;49.80
50067;DHT22;35952;52.524;13.340;2022-09-03T16:32:16;21.90;49.70
50067;DHT22;35952;52.524;13.340;2022-09-03T16:35:10;21.90;49.90
50067;DHT22;35952;52.524;13.340;2022-09-03T16:46:55;21.60;50.50
50067;DHT22;35952;52.524;13.340;2022-09-03T16:55:23;21.70;50.40
50067;DHT22;35952;52.524;13.340;2022-09-03T17:01:05;21.60;50.60
50067;DHT22;35952;52.524;13.340;2022-09-03T17:03:56;21.60;51.00
50067;DHT22;35952;52.524;13.340;2022-09-03T17:06:50;21.40;51.00
50067;DHT22;35952;52.524;13.340;2022-09-03T17:09:26;21.30;51.50
50067;DHT22;35952;52.524;13.340;2022-09-03T17:12:34;21.20;51.70
50067;DHT22;35952;52.524;13.340;2022-09-03T17:20:43;21.10;52.70
50067;DHT22;35952;52.524;13.340;2022-09-03T17:25:56;21.20;52.30
50067;DHT22;35952;52.524;13.340;2022-09-03T17:28:43;21.10;52.50
50067;DHT22;35952;52.524;13.340;2022-09-03T17:34:45;21.00;52.60
50067;DHT22;35952;52.524;13.340;2022-09-03T17:43:15;20.90;52.50
50067;DHT22;35952;52.524;13.340;2022-09-03T17:46:05;21.00;52.40
50067;DHT22;35952;52.524;13.340;2022-09-03T17:48:51;20.90;52.60
50067;DHT22;35952;52.524;13.340;2022-09-03T17:53:53;20.90;53.10
50067;DHT22;35952;52.524;13.340;2022-09-03T17:56:46;20.90;52.90
50067;DHT22;35952;52.524;13.340;2022-09-03T17:59:18;20.90;52.90
50067;DHT22;35952;52.524;13.340;2022-09-03T18:01:53;20.70;53.30
50067;DHT22;35952;52.524;13.340;2022-09-03T18:04:38;20.80;53.20
50067;DHT22;35952;52.524;13.340;2022-09-03T18:13:30;20.70;53.20
50067;DHT22;35952;52.524;13.340;2022-09-03T18:18:32;20.70;53.40
50067;DHT22;35952;52.524;13.340;2022-09-03T18:21:04;20.60;53.60
50067;DHT22;35952;52.524;13.340;2022-09-03T18:24:16;20.60;53.60
50067;DHT22;35952;52.524;13.340;2022-09-03T18:32:47;20.50;53.90
50067;DHT22;35952;52.524;13.340;2022-09-03T18:35:31;20.50;53.60
50067;DHT22;35952;52.524;13.340;2022-09-03T18:38:35;20.60;53.50
50067;DHT22;35952;52.524;13.340;2022-09-03T18:57:27;20.40;53.80
50067;DHT22;35952;52.524;13.340;2022-09-03T19:00:15;20.40;54.00
50067;DHT22;35952;52.524;13.340;2022-09-03T19:06:13;20.60;53.70
50067;DHT22;35952;52.524;13.340;2022-09-03T19:12:29;20.30;54.20
50067;DHT22;35952;52.524;13.340;2022-09-03T19:15:25;20.30;54.10
50067;DHT22;35952;52.524;13.340;2022-09-03T19:18:34;20.30;54.20